createdAt,value
2023-04-14T00:02:29.431Z,2.00
2023-04-14T00:06:11.412Z,1.48
2023-04-14T00:09:53.205Z,1.80
2023-04-14T00:13:35.018Z,1.85
2023-04-14T00:17:16.925Z,2.50
2023-04-14T00:20:58.825Z,1.95
2023-04-14T00:24:43.756Z,1.67
2023-04-14T00:28:25.518Z,1.73
2023-04-14T00:32:07.792Z,1.73
2023-04-14T00:35:49.583Z,1.65
2023-04-14T00:39:31.611Z,1.77
2023-04-14T00:43:13.405Z,2.30
2023-04-14T00:46:56.954Z,2.00
2023-04-14T00:50:38.902Z,1.50
2023-04-14T00:54:20.952Z,1.60
2023-04-14T00:58:03.510Z,2.70
2023-04-14T01:01:45.605Z,1.50
2023-04-14T01:05:27.538Z,1.70
2023-04-14T01:09:09.594Z,1.45
2023-04-14T01:13:12.314Z,1.60
2023-04-14T01:17:06.269Z,1.40
2023-04-14T01:20:55.001Z,2.35
2023-04-14T01:24:39.848Z,1.50
2023-04-14T01:28:59.461Z,1.45
2023-04-14T01:32:45.969Z,1.40
2023-04-14T01:36:34.584Z,1.20
2023-04-14T01:40:19.635Z,1.90
2023-04-14T01:44:03.189Z,1.63
2023-04-14T01:47:46.431Z,1.00
2023-04-14T01:51:32.229Z,1.20
2023-04-14T01:55:17.550Z,0.90
2023-04-14T01:59:02.041Z,2.72
2023-04-14T02:02:49.507Z,1.23
2023-04-14T02:06:32.817Z,2.80
2023-04-14T02:10:18.223Z,1.27
2023-04-14T02:14:01.078Z,1.42
2023-04-14T02:17:46.594Z,1.35
2023-04-14T02:21:31.264Z,1.42
2023-04-14T02:25:13.406Z,1.00
2023-04-14T02:29:05.993Z,1.77
2023-04-14T02:32:53.429Z,1.10
2023-04-14T02:36:43.048Z,1.30
2023-04-14T02:40:31.961Z,1.95
2023-04-14T02:44:21.371Z,1.15
2023-04-14T02:48:10.008Z,1.67
2023-04-14T02:51:53.388Z,1.83
2023-04-14T02:55:36.099Z,1.23
2023-04-14T02:59:19.044Z,1.20
2023-04-14T03:03:02.539Z,1.50
2023-04-14T03:06:45.348Z,1.02
2023-04-14T03:10:27.522Z,0.88
2023-04-14T03:14:10.345Z,1.67
2023-04-14T03:17:56.819Z,1.88
2023-04-14T03:21:39.439Z,1.00
2023-04-14T03:25:21.814Z,1.17
2023-04-14T03:29:06.555Z,1.85
2023-04-14T03:32:50.611Z,1.52
2023-04-14T03:36:32.978Z,1.48
2023-04-14T03:40:16.399Z,1.88
2023-04-14T03:43:59.684Z,1.80
2023-04-14T03:47:41.571Z,1.10
2023-04-14T03:51:27.489Z,1.23
2023-04-14T03:55:12.616Z,1.60
2023-04-14T03:58:56.979Z,1.15
2023-04-14T04:02:40.451Z,1.90
2023-04-14T04:06:22.675Z,2.15
2023-04-14T04:10:06.625Z,2.33
2023-04-14T04:13:49.474Z,1.85
2023-04-14T04:17:33.163Z,1.27
2023-04-14T04:21:18.066Z,2.88
2023-04-14T04:25:00.466Z,1.58
2023-04-14T04:28:42.501Z,1.50
2023-04-14T04:32:25.004Z,1.38
2023-04-14T04:36:07.521Z,2.05
2023-04-14T04:39:49.376Z,1.33
2023-04-14T04:43:31.214Z,1.30
2023-04-14T04:47:13.357Z,1.48
2023-04-14T04:50:55.491Z,1.60
2023-04-14T04:54:37.283Z,1.70
2023-04-14T04:58:19.105Z,1.15
2023-04-14T05:02:01.432Z,1.80
2023-04-14T05:05:43.253Z,1.15
2023-04-14T05:09:25.390Z,1.80
2023-04-14T05:13:07.163Z,1.60
2023-04-14T05:16:48.983Z,1.63
2023-04-14T05:20:31.229Z,1.50
2023-04-14T05:24:13.513Z,1.20
2023-04-14T05:27:55.452Z,1.48
2023-04-14T05:31:37.350Z,1.20
2023-04-14T05:35:19.156Z,1.33
2023-04-14T05:39:01.271Z,1.25
2023-04-14T05:42:43.033Z,0.95
2023-04-14T05:46:24.844Z,1.35
2023-04-14T05:50:07.992Z,1.08
2023-04-14T05:53:49.828Z,1.65
2023-04-14T05:57:35.855Z,1.30
2023-04-14T06:01:17.674Z,2.05
2023-04-14T06:05:02.740Z,1.63
2023-04-14T06:08:44.645Z,1.40
2023-04-14T06:12:26.436Z,1.40
2023-04-14T06:16:08.742Z,1.00
2023-04-14T06:19:50.776Z,1.95
2023-04-14T06:23:32.751Z,1.67
2023-04-14T06:27:15.711Z,1.15
2023-04-14T06:30:57.629Z,1.17
2023-04-14T06:34:39.433Z,1.88
2023-04-14T06:38:21.333Z,2.28
2023-04-14T06:42:03.162Z,2.15
2023-04-14T06:45:45.024Z,2.08
2023-04-14T06:49:26.890Z,1.73
2023-04-14T06:53:09.388Z,1.60
2023-04-14T06:56:51.414Z,1.80
2023-04-14T07:00:33.200Z,1.42
2023-04-14T07:04:15.621Z,1.48
2023-04-14T07:07:57.501Z,1.67
2023-04-14T07:11:40.437Z,1.92
2023-04-14T07:15:22.289Z,1.60
2023-04-14T07:19:04.088Z,2.10
2023-04-14T07:22:45.870Z,1.48
2023-04-14T07:26:27.685Z,1.92
2023-04-14T07:30:09.832Z,1.08
2023-04-14T07:33:51.770Z,0.77
2023-04-14T07:37:33.877Z,1.38
2023-04-14T07:41:15.992Z,1.08
2023-04-14T07:44:57.848Z,0.75
2023-04-14T07:48:39.775Z,1.13
2023-04-14T07:52:21.564Z,1.77
2023-04-14T07:56:03.819Z,0.98
2023-04-14T07:59:45.585Z,1.02
2023-04-14T08:03:27.517Z,0.88
2023-04-14T08:07:09.472Z,0.82
2023-04-14T08:10:51.273Z,0.93
2023-04-14T08:14:33.565Z,1.20
2023-04-14T08:18:15.564Z,0.82
2023-04-14T08:21:57.459Z,0.80
2023-04-14T08:25:39.270Z,1.10
2023-04-14T08:29:21.445Z,1.40
2023-04-14T08:33:03.413Z,0.82
2023-04-14T08:36:46.522Z,1.35
2023-04-14T08:40:43.680Z,0.88
2023-04-14T08:48:08.079Z,1.52
2023-04-14T08:51:51.634Z,0.85
2023-04-14T08:55:34.226Z,1.02
2023-04-14T08:59:16.203Z,0.80
2023-04-14T09:02:58.707Z,1.33
2023-04-14T09:06:41.033Z,1.15
2023-04-14T09:10:23.250Z,0.63
2023-04-14T09:14:05.147Z,1.10
2023-04-14T09:17:47.082Z,1.10
2023-04-14T09:21:49.763Z,1.10
2023-04-14T09:25:31.192Z,1.10
2023-04-14T09:29:12.971Z,1.25
2023-04-14T09:32:56.596Z,1.23
2023-04-14T09:36:38.462Z,1.00
2023-04-14T09:40:30.627Z,1.15
2023-04-14T09:44:12.431Z,2.05
2023-04-14T09:48:06.697Z,1.45
2023-04-14T09:51:49.505Z,1.20
2023-04-14T09:55:31.475Z,0.98
2023-04-14T09:59:13.332Z,0.73
2023-04-14T10:02:58.036Z,1.25
2023-04-14T10:06:41.289Z,1.27
2023-04-14T10:10:23.601Z,0.90
2023-04-14T10:14:06.734Z,1.00
2023-04-14T10:17:48.616Z,1.63
2023-04-14T10:21:30.589Z,1.00
2023-04-14T10:25:13.669Z,1.08
2023-04-14T10:28:56.653Z,1.15
2023-04-14T10:32:40.629Z,1.30
2023-04-14T10:36:26.471Z,0.82
2023-04-14T10:40:08.724Z,1.50
2023-04-14T10:43:50.566Z,1.13
2023-04-14T10:47:33.471Z,1.65
2023-04-14T10:51:18.125Z,1.38
2023-04-14T10:55:09.367Z,1.73
2023-04-14T10:58:56.313Z,1.50
2023-04-14T11:02:38.283Z,0.80
2023-04-14T11:06:47.987Z,1.00
2023-04-14T11:10:33.158Z,0.82
2023-04-14T11:14:16.166Z,0.60
2023-04-14T11:18:14.640Z,1.13
2023-04-14T11:21:57.227Z,0.70
2023-04-14T11:25:40.402Z,0.60
2023-04-14T11:29:23.144Z,0.90
2023-04-14T11:33:05.112Z,1.05
2023-04-14T11:36:47.550Z,0.55
2023-04-14T11:40:29.526Z,0.93
2023-04-14T11:44:19.540Z,0.55
2023-04-14T11:48:06.217Z,0.85
2023-04-14T11:51:48.323Z,0.60
2023-04-14T11:55:30.793Z,0.40
2023-04-14T11:59:12.779Z,0.40
2023-04-14T12:02:55.274Z,0.20
2023-04-14T12:06:39.154Z,0.47
2023-04-14T12:10:22.211Z,0.30
2023-04-14T12:14:05.715Z,0.45
2023-04-14T12:17:47.628Z,0.63
2023-04-14T12:21:29.596Z,0.50
2023-04-14T12:25:12.629Z,0.90
2023-04-14T12:28:58.097Z,0.47
2023-04-14T12:32:44.214Z,0.77
2023-04-14T12:36:45.325Z,0.90
2023-04-14T12:40:41.187Z,0.90
2023-04-14T12:44:24.511Z,0.93
2023-04-14T12:48:06.915Z,1.05
2023-04-14T12:51:48.829Z,1.10
2023-04-14T12:55:31.943Z,1.30
2023-04-14T12:59:14.791Z,0.80
2023-04-14T13:02:56.929Z,1.00
2023-04-14T13:06:38.922Z,0.93
2023-04-14T13:10:21.942Z,1.25
2023-04-14T13:14:03.788Z,0.65
2023-04-14T13:17:45.582Z,0.60
2023-04-14T13:21:27.415Z,1.05
2023-04-14T13:25:09.416Z,1.05
2023-04-14T13:28:51.352Z,1.40
2023-04-14T13:32:33.181Z,1.00
2023-04-14T13:36:15.115Z,1.13
2023-04-14T13:39:56.966Z,0.80
2023-04-14T13:43:38.793Z,1.10
2023-04-14T13:47:20.568Z,1.10
2023-04-14T13:51:02.823Z,1.90
2023-04-14T13:54:44.669Z,1.30
2023-04-14T13:58:26.904Z,1.00
2023-04-14T14:02:08.792Z,1.30
2023-04-14T14:05:51.371Z,1.40
2023-04-14T14:09:33.132Z,1.00
2023-04-14T14:13:16.595Z,0.73
2023-04-14T14:16:59.768Z,0.80
2023-04-14T14:20:41.668Z,1.55
2023-04-14T14:24:23.465Z,0.90
2023-04-14T14:28:05.344Z,1.00
2023-04-14T14:31:47.302Z,0.80
2023-04-14T14:35:29.173Z,0.75
2023-04-14T14:39:11.119Z,0.60
2023-04-14T14:42:52.948Z,0.70
2023-04-14T14:46:34.831Z,0.95
2023-04-14T14:50:17.072Z,0.60
2023-04-14T14:54:09.160Z,0.70
2023-04-14T14:57:51.422Z,1.25
2023-04-14T15:01:33.402Z,1.00
2023-04-14T15:05:15.259Z,1.27
2023-04-14T15:08:57.273Z,0.80
2023-04-14T15:12:39.098Z,1.08
2023-04-14T15:16:21.193Z,0.98
2023-04-14T15:20:05.139Z,1.05
2023-04-14T15:23:47.089Z,0.80
2023-04-14T15:27:28.950Z,1.02
2023-04-14T15:31:11.160Z,1.75
2023-04-14T15:34:54.238Z,2.05
2023-04-14T15:38:36.478Z,2.47
2023-04-14T15:42:18.344Z,3.80
2023-04-14T15:46:00.366Z,4.65
2023-04-14T15:49:42.470Z,4.75
2023-04-14T15:53:28.383Z,2.93
2023-04-14T15:57:10.207Z,1.15
2023-04-14T16:00:52.013Z,0.55
2023-04-14T16:04:33.982Z,1.05
2023-04-14T16:08:16.919Z,0.43
2023-04-14T16:11:58.766Z,0.60
2023-04-14T16:15:40.847Z,1.13
2023-04-14T16:19:26.645Z,0.80
2023-04-14T16:23:08.526Z,0.47
2023-04-14T16:26:50.571Z,0.88
2023-04-14T16:30:32.432Z,0.70
2023-04-14T16:34:14.684Z,0.82
2023-04-14T16:37:56.981Z,1.02
2023-04-14T16:41:38.805Z,1.60
2023-04-14T16:45:20.836Z,2.13
2023-04-14T16:49:02.948Z,1.58
2023-04-14T16:52:44.934Z,1.27
2023-04-14T16:56:26.769Z,1.58
2023-04-14T17:00:12.229Z,1.35
2023-04-14T17:03:54.225Z,1.33
2023-04-14T17:07:36.297Z,2.22
2023-04-14T17:11:18.305Z,2.08
2023-04-14T17:15:00.878Z,1.50
2023-04-14T17:18:42.850Z,2.30
2023-04-14T17:22:24.691Z,2.72
2023-04-14T17:26:06.689Z,4.03
2023-04-14T17:29:48.512Z,4.35
2023-04-14T17:33:30.758Z,4.88
2023-04-14T17:37:12.591Z,3.28
2023-04-14T17:40:54.690Z,1.80
2023-04-14T17:44:36.681Z,1.40
2023-04-14T17:48:19.518Z,3.50
2023-04-14T17:52:01.328Z,1.60
2023-04-14T17:55:43.686Z,1.70
2023-04-14T17:59:25.961Z,2.45
2023-04-14T18:03:08.937Z,2.30
2023-04-14T18:06:51.908Z,2.25
2023-04-14T18:10:36.338Z,2.33
2023-04-14T18:14:19.286Z,2.20
2023-04-14T18:18:01.769Z,2.28
2023-04-14T18:21:44.997Z,2.75
2023-04-14T18:25:26.983Z,2.03
2023-04-14T18:29:08.893Z,2.30
2023-04-14T18:32:50.879Z,1.85
2023-04-14T18:36:33.424Z,2.88
2023-04-14T18:40:16.352Z,1.70
2023-04-14T18:44:00.216Z,1.77
2023-04-14T18:47:43.170Z,2.67
2023-04-14T18:51:26.047Z,3.08
2023-04-14T18:55:09.576Z,2.40
2023-04-14T18:58:52.593Z,4.90
2023-04-14T19:02:35.317Z,5.38
2023-04-14T19:06:17.372Z,5.00
2023-04-14T19:10:00.616Z,5.82
2023-04-14T19:13:43.202Z,6.05
2023-04-14T19:17:25.895Z,3.05
2023-04-14T19:21:09.546Z,2.97
2023-04-14T19:24:52.913Z,2.88
2023-04-14T19:28:35.715Z,2.58
2023-04-14T19:32:18.699Z,3.00
2023-04-14T19:36:01.474Z,1.95
2023-04-14T19:39:44.221Z,2.05
2023-04-14T19:43:26.953Z,2.33
2023-04-14T19:47:09.894Z,2.85
2023-04-14T19:50:55.242Z,2.85
2023-04-14T19:54:38.557Z,1.55
2023-04-14T19:58:21.693Z,2.00
2023-04-14T20:02:05.780Z,1.88
2023-04-14T20:05:56.866Z,1.65
2023-04-14T20:09:44.943Z,1.35
2023-04-14T20:13:30.496Z,1.73
2023-04-14T20:17:12.550Z,1.85
2023-04-14T20:20:55.717Z,1.85
2023-04-14T20:24:37.938Z,2.15
2023-04-14T20:28:21.480Z,1.30
2023-04-14T20:32:04.525Z,0.80
2023-04-14T20:35:46.560Z,0.75
2023-04-14T20:39:28.461Z,0.88
2023-04-14T20:43:10.476Z,0.60
2023-04-14T20:46:52.474Z,0.70
2023-04-14T20:50:34.301Z,0.80
2023-04-14T20:54:16.527Z,1.13
2023-04-14T20:57:58.857Z,0.75
2023-04-14T21:01:42.688Z,0.70
2023-04-14T21:05:26.334Z,0.50
2023-04-14T21:09:09.026Z,0.65
2023-04-14T21:15:31.655Z,0.90
2023-04-14T21:20:43.467Z,0.80
2023-04-14T21:24:26.253Z,0.40
2023-04-14T21:28:08.702Z,0.70
2023-04-14T21:31:50.575Z,0.80
2023-04-14T21:35:32.412Z,0.60
2023-04-14T21:39:17.585Z,1.02
2023-04-14T21:42:59.453Z,0.98
2023-04-14T21:46:42.400Z,0.60
2023-04-14T21:50:24.551Z,0.70
2023-04-14T21:54:07.770Z,0.90
2023-04-14T21:57:50.494Z,0.80
2023-04-14T22:01:33.321Z,0.60
2023-04-14T22:05:16.754Z,0.77
2023-04-14T22:08:58.573Z,0.93
2023-04-14T22:12:42.263Z,0.70
2023-04-14T22:16:25.466Z,0.80
2023-04-14T22:20:08.185Z,0.70
2023-04-14T22:23:50.421Z,1.55
2023-04-14T22:27:34.699Z,0.75
2023-04-14T22:31:16.785Z,1.00
2023-04-14T22:34:59.052Z,0.80
2023-04-14T22:38:41.930Z,0.73
2023-04-14T22:42:23.748Z,1.10
2023-04-14T22:46:05.654Z,0.85
2023-04-14T22:49:47.463Z,1.10
2023-04-14T22:53:29.222Z,1.00
2023-04-14T22:57:11.482Z,0.77
2023-04-14T23:00:53.782Z,0.85
2023-04-14T23:04:35.661Z,0.80
2023-04-14T23:08:17.548Z,0.90
2023-04-14T23:12:01.214Z,0.85
2023-04-14T23:15:43.298Z,0.70
2023-04-14T23:19:25.331Z,0.73
2023-04-14T23:23:12.097Z,1.08
2023-04-14T23:26:54.165Z,0.90
2023-04-14T23:30:36.002Z,1.40
2023-04-14T23:34:17.806Z,0.93
2023-04-14T23:38:02.392Z,1.23
2023-04-14T23:41:44.257Z,0.90
2023-04-14T23:45:30.387Z,1.08
2023-04-14T23:49:24.195Z,1.40
2023-04-14T23:53:14.637Z,1.48
2023-04-14T23:56:56.782Z,0.90
